createdAt,value
2023-05-12T00:00:09.928Z,18.38
2023-05-12T00:02:36.594Z,17.53
2023-05-12T00:05:04.409Z,17.83
2023-05-12T00:07:31.000Z,17.00
2023-05-12T00:09:57.528Z,17.48
2023-05-12T00:12:24.071Z,16.55
2023-05-12T00:14:50.683Z,16.67
2023-05-12T00:17:17.340Z,16.55
2023-05-12T00:19:44.332Z,17.15
2023-05-12T00:22:11.697Z,18.65
2023-05-12T00:24:38.405Z,17.45
2023-05-12T00:27:05.578Z,17.20
2023-05-12T00:29:33.608Z,18.02
2023-05-12T00:32:00.445Z,20.08
2023-05-12T00:34:30.201Z,18.30
2023-05-12T00:36:56.964Z,18.75
2023-05-12T00:39:23.728Z,19.60
2023-05-12T00:41:58.266Z,18.83
2023-05-12T00:44:24.939Z,19.55
2023-05-12T00:46:52.806Z,18.02
2023-05-12T00:49:23.276Z,19.25
2023-05-12T00:51:50.360Z,16.27
2023-05-12T00:54:17.316Z,19.23
2023-05-12T00:56:43.985Z,17.10
2023-05-12T00:59:10.879Z,18.52
2023-05-12T01:01:38.053Z,19.05
2023-05-12T01:04:05.020Z,19.97
2023-05-12T01:06:49.580Z,18.15
2023-05-12T01:09:16.606Z,17.33
2023-05-12T01:11:43.180Z,20.48
2023-05-12T01:14:09.758Z,20.67
2023-05-12T01:16:48.309Z,17.67
2023-05-12T01:19:34.777Z,18.35
2023-05-12T01:22:01.565Z,18.75
2023-05-12T01:24:31.043Z,18.17
2023-05-12T01:26:59.232Z,19.63
2023-05-12T01:29:26.535Z,19.20
2023-05-12T01:31:53.481Z,19.75
2023-05-12T01:34:20.856Z,18.80
2023-05-12T01:36:47.485Z,17.50
2023-05-12T01:39:14.324Z,19.05
2023-05-12T01:41:41.244Z,17.90
2023-05-12T01:44:08.285Z,19.67
2023-05-12T01:46:35.145Z,19.75
2023-05-12T01:49:01.695Z,19.23
2023-05-12T01:51:28.357Z,19.38
2023-05-12T01:53:54.963Z,18.87
2023-05-12T01:56:22.050Z,18.30
2023-05-12T01:58:48.778Z,19.58
2023-05-12T02:01:15.488Z,16.48
2023-05-12T02:03:42.531Z,21.48
2023-05-12T02:06:09.597Z,17.77
2023-05-12T02:08:36.265Z,18.48
2023-05-12T02:11:07.332Z,18.13
2023-05-12T02:13:35.048Z,18.75
2023-05-12T02:16:02.326Z,20.08
2023-05-12T02:18:28.932Z,17.67
2023-05-12T02:20:55.782Z,17.98
2023-05-12T02:23:22.548Z,17.85
2023-05-12T02:25:49.100Z,20.88
2023-05-12T02:28:15.986Z,18.55
2023-05-12T02:30:48.872Z,20.87
2023-05-12T02:33:25.300Z,17.58
2023-05-12T02:35:51.855Z,21.05
2023-05-12T02:38:18.427Z,21.27
2023-05-12T02:40:46.680Z,19.60
2023-05-12T02:43:13.451Z,19.40
2023-05-12T02:45:40.506Z,24.20
2023-05-12T02:48:07.421Z,20.08
2023-05-12T02:50:34.018Z,19.73
2023-05-12T02:53:00.905Z,18.13
2023-05-12T02:55:30.334Z,21.80
2023-05-12T02:57:57.441Z,21.15
2023-05-12T03:00:24.057Z,21.50
2023-05-12T03:02:50.690Z,19.23
2023-05-12T03:05:17.580Z,20.85
2023-05-12T03:07:44.117Z,19.37
2023-05-12T03:10:10.910Z,17.67
2023-05-12T03:12:37.708Z,18.73
2023-05-12T03:15:05.072Z,18.52
2023-05-12T03:17:31.712Z,21.33
2023-05-12T03:19:58.331Z,19.43
2023-05-12T03:22:25.182Z,19.15
2023-05-12T03:24:52.033Z,20.02
2023-05-12T03:27:18.856Z,19.58
2023-05-12T03:29:46.048Z,19.90
2023-05-12T03:32:13.148Z,20.07
2023-05-12T03:34:41.204Z,20.08
2023-05-12T03:37:08.032Z,19.50
2023-05-12T03:39:34.567Z,17.92
2023-05-12T03:42:01.162Z,18.17
2023-05-12T03:44:27.712Z,16.77
2023-05-12T03:46:54.329Z,18.48
2023-05-12T03:49:20.900Z,17.92
2023-05-12T03:51:47.536Z,17.83
2023-05-12T03:54:14.091Z,18.90
2023-05-12T03:56:40.651Z,17.83
2023-05-12T03:59:07.242Z,17.55
2023-05-12T04:01:34.537Z,17.67
2023-05-12T04:04:01.502Z,20.92
2023-05-12T04:06:28.126Z,22.42
2023-05-12T04:08:54.787Z,17.77
2023-05-12T04:11:21.414Z,17.90
2023-05-12T04:13:47.931Z,17.83
2023-05-12T04:16:16.797Z,17.23
2023-05-12T04:18:43.472Z,18.10
2023-05-12T04:21:10.172Z,20.00
2023-05-12T04:23:36.792Z,20.35
2023-05-12T04:26:05.602Z,16.42
2023-05-12T04:28:32.297Z,17.35
2023-05-12T04:31:05.450Z,16.60
2023-05-12T04:33:32.013Z,18.57
2023-05-12T04:35:59.021Z,18.75
2023-05-12T04:38:28.855Z,17.27
2023-05-12T04:40:59.484Z,16.67
2023-05-12T04:45:57.037Z,13.50
2023-05-12T04:48:26.927Z,14.98
2023-05-12T04:50:53.474Z,15.32
2023-05-12T04:53:20.089Z,14.40
2023-05-12T04:55:46.807Z,13.27
2023-05-12T04:58:16.273Z,12.80
2023-05-12T05:00:43.304Z,15.65
2023-05-12T05:03:10.125Z,13.93
2023-05-12T05:05:36.747Z,12.32
2023-05-12T05:08:03.321Z,13.40
2023-05-12T05:10:29.928Z,12.77
2023-05-12T05:12:56.763Z,14.73
2023-05-12T05:15:23.732Z,13.82
2023-05-12T05:17:50.693Z,13.00
2023-05-12T05:20:17.754Z,13.50
2023-05-12T05:22:44.420Z,15.60
2023-05-12T05:25:11.320Z,14.43
2023-05-12T05:27:38.965Z,14.35
2023-05-12T05:30:09.383Z,12.30
2023-05-12T05:32:37.267Z,13.32
2023-05-12T05:35:04.118Z,12.23
2023-05-12T05:37:30.871Z,11.65
2023-05-12T05:39:57.598Z,11.13
2023-05-12T05:42:24.407Z,11.05
2023-05-12T05:44:51.009Z,12.20
2023-05-12T05:47:17.624Z,12.20
2023-05-12T05:49:44.452Z,11.82
2023-05-12T05:52:11.061Z,12.48
2023-05-12T05:54:37.676Z,12.02
2023-05-12T05:57:04.629Z,10.68
2023-05-12T05:59:31.263Z,10.60
2023-05-12T06:01:58.422Z,12.65
2023-05-12T06:04:25.180Z,11.73
2023-05-12T06:06:51.808Z,11.18
2023-05-12T06:09:18.413Z,11.30
2023-05-12T06:11:44.946Z,11.43
2023-05-12T06:14:11.907Z,10.98
2023-05-12T06:16:38.648Z,11.85
2023-05-12T06:19:05.349Z,12.10
2023-05-12T06:21:32.405Z,10.95
2023-05-12T06:23:59.190Z,10.83
2023-05-12T06:26:25.864Z,11.50
2023-05-12T06:28:52.435Z,13.50
2023-05-12T06:31:21.744Z,10.60
2023-05-12T06:33:48.442Z,10.38
2023-05-12T06:36:15.318Z,10.83
2023-05-12T06:38:41.910Z,10.57
2023-05-12T06:41:08.571Z,10.63
2023-05-12T06:43:35.221Z,10.93
2023-05-12T06:46:02.190Z,10.95
2023-05-12T06:48:31.785Z,9.70
2023-05-12T06:50:58.383Z,11.90
2023-05-12T06:53:25.685Z,11.07
2023-05-12T06:55:54.024Z,9.90
2023-05-12T06:58:22.290Z,9.15
2023-05-12T07:00:49.170Z,9.93
2023-05-12T07:03:16.015Z,11.00
2023-05-12T07:05:42.937Z,9.68
2023-05-12T07:08:09.792Z,11.27
2023-05-12T07:10:38.062Z,10.80
2023-05-12T07:13:04.735Z,8.17
2023-05-12T07:15:32.958Z,9.70
2023-05-12T07:17:59.809Z,12.88
2023-05-12T07:20:26.448Z,9.45
2023-05-12T07:22:54.884Z,11.23
2023-05-12T07:25:22.161Z,9.00
2023-05-12T07:27:49.370Z,10.88
2023-05-12T07:30:16.681Z,10.52
2023-05-12T07:32:43.395Z,10.23
2023-05-12T07:35:10.650Z,9.85
2023-05-12T07:37:37.360Z,8.57
2023-05-12T07:40:04.887Z,11.43
2023-05-12T07:42:31.596Z,10.52
2023-05-12T07:44:58.328Z,9.18
2023-05-12T07:47:25.165Z,10.32
2023-05-12T07:49:51.998Z,11.30
2023-05-12T07:52:18.559Z,10.77
2023-05-12T07:54:45.157Z,8.77
2023-05-12T07:57:11.722Z,9.95
2023-05-12T07:59:38.520Z,10.10
2023-05-12T08:02:05.107Z,10.53
2023-05-12T08:04:34.721Z,9.30
2023-05-12T08:07:01.356Z,10.57
2023-05-12T08:09:27.922Z,9.23
2023-05-12T08:11:54.632Z,11.25
2023-05-12T08:14:22.783Z,9.80
2023-05-12T08:16:49.551Z,9.55
2023-05-12T08:19:16.275Z,9.80
2023-05-12T08:21:43.219Z,9.88
2023-05-12T08:24:10.071Z,8.90
2023-05-12T08:26:36.621Z,10.13
2023-05-12T08:29:05.078Z,9.68
2023-05-12T08:31:32.445Z,9.77
2023-05-12T08:34:09.172Z,10.05
2023-05-12T08:36:36.867Z,12.05
2023-05-12T08:39:03.505Z,9.67
2023-05-12T08:41:49.032Z,10.15
2023-05-12T08:44:16.021Z,10.30
2023-05-12T08:46:43.668Z,9.23
2023-05-12T08:49:12.642Z,9.05
2023-05-12T08:51:40.799Z,9.57
2023-05-12T08:54:09.381Z,10.43
2023-05-12T08:59:09.621Z,10.48
2023-05-12T09:01:37.073Z,10.65
2023-05-12T09:04:07.284Z,8.97
2023-05-12T09:06:34.015Z,9.57
2023-05-12T09:09:00.754Z,10.73
2023-05-12T09:11:27.380Z,10.00
2023-05-12T09:14:06.691Z,9.32
2023-05-12T09:16:37.138Z,9.10
2023-05-12T09:19:06.811Z,9.52
2023-05-12T09:21:34.386Z,9.18
2023-05-12T09:24:06.659Z,10.25
2023-05-12T09:26:52.696Z,9.95
2023-05-12T09:29:30.867Z,9.10
2023-05-12T09:32:00.493Z,9.02
2023-05-12T09:34:30.626Z,9.07
2023-05-12T09:37:02.532Z,10.27
2023-05-12T09:39:29.196Z,7.45
2023-05-12T09:41:56.313Z,7.53
2023-05-12T09:44:24.548Z,7.50
2023-05-12T09:46:52.196Z,7.78
2023-05-12T09:49:25.959Z,7.50
2023-05-12T09:51:59.482Z,7.38
2023-05-12T09:54:27.776Z,7.03
2023-05-12T09:57:00.921Z,5.82
2023-05-12T09:59:31.767Z,6.78
2023-05-12T10:02:02.879Z,6.28
2023-05-12T10:04:39.524Z,6.40
2023-05-12T10:07:10.362Z,6.47
2023-05-12T10:09:39.494Z,7.20
2023-05-12T10:12:06.582Z,6.75
2023-05-12T10:14:38.862Z,6.50
2023-05-12T10:17:07.143Z,5.55
2023-05-12T10:19:35.629Z,6.90
2023-05-12T10:22:02.177Z,7.07
2023-05-12T10:24:28.890Z,6.13
2023-05-12T10:26:57.868Z,6.60
2023-05-12T10:29:30.487Z,8.25
2023-05-12T10:31:58.115Z,5.53
2023-05-12T10:34:31.141Z,7.38
2023-05-12T10:36:58.421Z,6.50
2023-05-12T10:39:29.912Z,6.53
2023-05-12T10:42:08.896Z,6.03
2023-05-12T10:44:37.023Z,7.47
2023-05-12T10:47:14.036Z,6.05
2023-05-12T10:49:42.004Z,6.45
2023-05-12T10:52:12.172Z,5.63
2023-05-12T10:54:44.883Z,5.30
2023-05-12T10:57:20.423Z,5.37
2023-05-12T10:59:52.990Z,4.82
2023-05-12T11:02:27.553Z,5.85
2023-05-12T11:05:00.225Z,5.30
2023-05-12T11:07:30.856Z,7.95
2023-05-12T11:10:01.642Z,5.23
2023-05-12T11:12:32.892Z,5.38
2023-05-12T11:15:01.686Z,5.60
2023-05-12T11:17:29.065Z,5.90
2023-05-12T11:19:55.912Z,6.65
2023-05-12T11:22:24.089Z,5.67
2023-05-12T11:24:52.996Z,5.60
2023-05-12T11:27:23.300Z,7.18
2023-05-12T11:29:58.560Z,5.35
2023-05-12T11:32:25.181Z,5.70
2023-05-12T11:34:51.793Z,5.67
2023-05-12T11:37:21.661Z,5.43
2023-05-12T11:39:48.525Z,5.50
2023-05-12T11:42:18.586Z,4.80
2023-05-12T11:44:50.204Z,5.53
2023-05-12T11:47:19.145Z,5.60
2023-05-12T11:49:55.921Z,6.93
2023-05-12T11:52:24.870Z,5.55
2023-05-12T11:55:00.301Z,6.07
2023-05-12T11:57:32.200Z,7.68
2023-05-12T12:00:00.945Z,7.77
2023-05-12T12:02:28.319Z,7.75
2023-05-12T12:04:55.389Z,6.80
2023-05-12T12:07:36.026Z,6.22
2023-05-12T12:10:16.900Z,6.32
2023-05-12T12:12:44.916Z,6.50
2023-05-12T12:15:12.446Z,5.90
2023-05-12T12:17:40.236Z,7.97
2023-05-12T12:20:08.468Z,7.45
2023-05-12T12:22:35.433Z,6.18
2023-05-12T12:25:03.114Z,7.13
2023-05-12T12:27:30.086Z,6.35
2023-05-12T12:29:56.723Z,7.13
2023-05-12T12:32:23.518Z,20.27
2023-05-12T12:34:50.244Z,13.75
2023-05-12T12:37:17.305Z,6.70
2023-05-12T12:39:44.407Z,6.32
2023-05-12T12:42:10.954Z,5.20
2023-05-12T12:44:37.563Z,4.60
2023-05-12T12:47:05.127Z,5.22
2023-05-12T12:49:32.060Z,5.57
2023-05-12T12:51:58.710Z,4.72
2023-05-12T12:54:28.824Z,4.90
2023-05-12T12:56:55.984Z,4.97
2023-05-12T12:59:23.480Z,3.95
2023-05-12T13:01:50.351Z,5.33
2023-05-12T13:04:19.774Z,3.83
2023-05-12T13:06:46.827Z,4.38
2023-05-12T13:09:14.027Z,4.13
2023-05-12T13:11:40.766Z,5.20
2023-05-12T13:14:08.386Z,4.43
2023-05-12T13:16:34.988Z,4.93
2023-05-12T13:19:01.770Z,5.32
2023-05-12T13:21:28.468Z,4.28
2023-05-12T13:23:55.095Z,4.93
2023-05-12T13:26:21.665Z,5.43
2023-05-12T13:28:48.279Z,4.68
2023-05-12T13:31:14.992Z,4.60
2023-05-12T13:33:41.686Z,4.85
2023-05-12T13:36:08.267Z,4.97
2023-05-12T13:38:34.930Z,5.17
2023-05-12T13:41:02.152Z,4.82
2023-05-12T13:43:28.787Z,4.10
2023-05-12T13:45:55.387Z,4.47
2023-05-12T13:48:22.034Z,5.50
2023-05-12T13:50:50.318Z,4.10
2023-05-12T13:53:16.852Z,4.20
2023-05-12T13:55:44.721Z,4.32
2023-05-12T13:58:11.401Z,4.13
2023-05-12T14:00:38.026Z,4.45
2023-05-12T14:03:04.669Z,4.20
2023-05-12T14:05:31.350Z,5.28
2023-05-12T14:07:58.059Z,3.72
2023-05-12T14:10:24.799Z,4.10
2023-05-12T14:12:51.398Z,3.78
2023-05-12T14:17:47.465Z,4.70
2023-05-12T14:20:14.551Z,4.18
2023-05-12T14:22:42.067Z,4.82
2023-05-12T14:25:08.934Z,4.85
2023-05-12T14:27:35.774Z,4.93
2023-05-12T14:30:02.521Z,4.32
2023-05-12T14:32:29.196Z,5.78
2023-05-12T14:34:55.766Z,8.38
2023-05-12T14:37:22.357Z,10.38
2023-05-12T14:39:52.787Z,4.60
2023-05-12T14:42:20.202Z,5.22
2023-05-12T14:44:46.803Z,6.85
2023-05-12T14:47:13.362Z,6.45
2023-05-12T14:49:39.891Z,7.30
2023-05-12T14:52:06.853Z,5.73
2023-05-12T14:54:34.051Z,8.65
2023-05-12T14:57:00.753Z,7.68
2023-05-12T14:59:29.513Z,5.28
2023-05-12T15:01:56.198Z,7.80
2023-05-12T15:04:23.727Z,4.67
2023-05-12T15:06:53.210Z,4.22
2023-05-12T15:09:19.799Z,4.35
2023-05-12T15:11:46.481Z,6.85
2023-05-12T15:14:13.120Z,4.18
2023-05-12T15:16:39.789Z,3.70
2023-05-12T15:19:06.673Z,5.13
2023-05-12T15:21:34.886Z,4.82
2023-05-12T15:24:02.846Z,5.20
2023-05-12T15:26:33.795Z,4.00
2023-05-12T15:29:01.859Z,4.17
2023-05-12T15:31:31.083Z,3.65
2023-05-12T15:33:58.032Z,5.28
2023-05-12T15:36:24.752Z,3.88
2023-05-12T15:38:54.373Z,3.72
2023-05-12T15:41:20.942Z,4.40
2023-05-12T15:43:48.342Z,5.50
2023-05-12T15:46:14.970Z,4.10
2023-05-12T15:48:41.624Z,4.07
2023-05-12T15:51:08.266Z,3.70
2023-05-12T15:53:35.046Z,3.93
2023-05-12T15:56:02.999Z,3.30
2023-05-12T15:58:29.944Z,3.83
2023-05-12T16:00:56.842Z,4.30
2023-05-12T16:03:24.009Z,3.65
2023-05-12T16:05:51.261Z,3.60
2023-05-12T16:08:18.076Z,4.35
2023-05-12T16:10:44.911Z,3.92
2023-05-12T16:13:11.487Z,3.35
2023-05-12T16:15:38.074Z,3.63
2023-05-12T16:18:06.988Z,3.47
2023-05-12T16:20:35.178Z,4.10
2023-05-12T16:23:02.798Z,3.40
2023-05-12T16:25:29.401Z,4.22
2023-05-12T16:27:56.341Z,3.80
2023-05-12T16:30:23.240Z,4.17
2023-05-12T16:32:49.921Z,3.88
2023-05-12T16:35:16.686Z,3.60
2023-05-12T16:37:43.269Z,3.58
2023-05-12T16:40:10.235Z,3.95
2023-05-12T16:42:37.302Z,3.50
2023-05-12T16:45:04.234Z,5.85
2023-05-12T16:47:30.783Z,4.35
2023-05-12T16:49:59.308Z,5.75
2023-05-12T16:52:27.070Z,4.65
2023-05-12T16:54:56.418Z,3.50
2023-05-12T16:57:24.300Z,4.90
2023-05-12T16:59:51.121Z,3.78
2023-05-12T17:02:17.932Z,3.30
2023-05-12T17:04:44.920Z,3.70
2023-05-12T17:07:11.576Z,4.60
2023-05-12T17:09:38.225Z,4.18
2023-05-12T17:12:06.881Z,5.30
2023-05-12T17:14:35.287Z,4.63
2023-05-12T17:17:02.455Z,6.90
2023-05-12T17:19:29.853Z,5.20
2023-05-12T17:21:56.630Z,3.90
2023-05-12T17:24:23.171Z,3.60
2023-05-12T17:26:49.945Z,3.65
2023-05-12T17:29:17.126Z,3.53
2023-05-12T17:31:43.923Z,3.60
2023-05-12T17:34:10.820Z,3.90
2023-05-12T17:36:37.656Z,5.85
2023-05-12T17:39:04.663Z,4.22
2023-05-12T17:41:31.345Z,4.32
2023-05-12T17:43:58.121Z,4.03
2023-05-12T17:46:24.808Z,3.70
2023-05-12T17:48:51.525Z,3.80
2023-05-12T17:51:18.263Z,4.78
2023-05-12T17:53:44.888Z,3.95
2023-05-12T17:56:11.907Z,4.87
2023-05-12T17:58:38.648Z,6.38
2023-05-12T18:01:05.554Z,5.93
2023-05-12T18:03:32.273Z,10.43
2023-05-12T18:05:58.950Z,12.55
2023-05-12T18:08:27.281Z,8.17
2023-05-12T18:10:54.143Z,6.15
2023-05-12T18:13:20.687Z,5.25
2023-05-12T18:15:49.038Z,5.57
2023-05-12T18:18:15.802Z,4.05
2023-05-12T18:20:42.598Z,3.73
2023-05-12T18:23:09.205Z,4.60
2023-05-12T18:25:35.762Z,4.60
2023-05-12T18:28:02.410Z,6.25
2023-05-12T18:30:29.121Z,4.40
2023-05-12T18:32:56.094Z,6.00
2023-05-12T18:35:23.316Z,5.20
2023-05-12T18:37:50.188Z,5.75
2023-05-12T18:40:17.045Z,5.88
2023-05-12T18:42:43.963Z,4.80
2023-05-12T18:45:11.336Z,5.33
2023-05-12T18:47:38.265Z,7.72
2023-05-12T18:50:05.590Z,6.18
2023-05-12T18:52:32.221Z,5.40
2023-05-12T18:54:59.957Z,5.55
2023-05-12T18:57:26.664Z,8.60
2023-05-12T18:59:53.520Z,6.28
2023-05-12T19:02:20.099Z,5.70
2023-05-12T19:04:47.461Z,5.65
2023-05-12T19:07:15.635Z,5.75
2023-05-12T19:09:43.404Z,5.77
2023-05-12T19:12:12.143Z,5.07
2023-05-12T19:14:39.737Z,5.78
2023-05-12T19:17:07.586Z,6.38
2023-05-12T19:19:34.874Z,6.90
2023-05-12T19:22:01.683Z,5.80
2023-05-12T19:24:28.394Z,6.38
2023-05-12T19:26:55.077Z,6.25
2023-05-12T19:29:21.799Z,6.88
2023-05-12T19:31:48.453Z,5.78
2023-05-12T19:34:15.145Z,7.63
2023-05-12T19:36:41.751Z,5.63
2023-05-12T19:39:08.280Z,5.60
2023-05-12T19:41:34.928Z,5.40
2023-05-12T19:44:04.495Z,5.43
2023-05-12T19:46:31.112Z,5.60
2023-05-12T19:48:57.883Z,5.05
2023-05-12T19:51:24.722Z,4.60
2023-05-12T19:53:51.267Z,4.40
2023-05-12T19:56:18.915Z,4.72
2023-05-12T19:58:45.534Z,4.63
2023-05-12T20:01:12.539Z,4.50
2023-05-12T20:03:39.287Z,4.95
2023-05-12T20:06:06.290Z,4.88
2023-05-12T20:08:32.888Z,6.18
2023-05-12T20:10:59.719Z,3.83
2023-05-12T20:13:26.487Z,4.47
2023-05-12T20:15:53.074Z,4.00
2023-05-12T20:18:21.592Z,4.53
2023-05-12T20:20:48.279Z,3.80
2023-05-12T20:23:15.026Z,3.73
2023-05-12T20:25:41.613Z,3.67
2023-05-12T20:28:09.601Z,4.20
2023-05-12T20:30:39.158Z,3.83
2023-05-12T20:33:05.888Z,5.88
2023-05-12T20:35:32.466Z,4.80
2023-05-12T20:37:59.452Z,3.25
2023-05-12T20:40:26.170Z,3.97
2023-05-12T20:42:52.818Z,3.85
2023-05-12T20:45:20.068Z,3.85
2023-05-12T20:47:47.211Z,4.33
2023-05-12T20:50:13.880Z,4.82
2023-05-12T20:52:41.685Z,3.83
2023-05-12T20:55:09.649Z,3.90
2023-05-12T20:57:36.376Z,3.90
2023-05-12T21:00:04.074Z,4.10
2023-05-12T21:02:30.773Z,3.78
2023-05-12T21:04:57.601Z,4.15
2023-05-12T21:07:24.217Z,3.95
2023-05-12T21:09:51.019Z,5.07
2023-05-12T21:12:17.748Z,4.47
2023-05-12T21:14:45.533Z,4.10
2023-05-12T21:17:13.546Z,4.25
2023-05-12T21:19:40.983Z,4.10
2023-05-12T21:22:09.206Z,4.40
2023-05-12T21:24:37.555Z,4.10
2023-05-12T21:27:05.801Z,3.92
2023-05-12T21:29:33.901Z,3.90
2023-05-12T21:32:01.063Z,5.45
2023-05-12T21:34:27.958Z,4.53
2023-05-12T21:36:54.979Z,4.90
2023-05-12T21:39:22.132Z,3.90
2023-05-12T21:41:49.122Z,3.80
2023-05-12T21:44:16.357Z,3.67
2023-05-12T21:46:43.123Z,4.28
2023-05-12T21:49:09.998Z,3.60
2023-05-12T21:51:39.641Z,3.95
2023-05-12T21:54:06.364Z,4.93
2023-05-12T21:56:33.262Z,4.30
2023-05-12T21:58:59.807Z,4.57
2023-05-12T22:01:26.447Z,4.90
2023-05-12T22:03:53.044Z,5.63
2023-05-12T22:06:20.022Z,4.30
2023-05-12T22:08:46.571Z,3.78
2023-05-12T22:11:13.447Z,4.72
2023-05-12T22:13:40.347Z,4.53
2023-05-12T22:16:07.156Z,4.50
2023-05-12T22:18:33.856Z,4.32
2023-05-12T22:21:00.696Z,4.30
2023-05-12T22:23:27.268Z,4.65
2023-05-12T22:25:53.880Z,4.20
2023-05-12T22:28:20.523Z,5.03
2023-05-12T22:30:47.063Z,4.13
2023-05-12T22:33:13.620Z,4.80
2023-05-12T22:35:40.160Z,5.18
2023-05-12T22:38:06.874Z,4.10
2023-05-12T22:40:36.823Z,3.83
2023-05-12T22:43:03.537Z,5.05
2023-05-12T22:45:30.081Z,4.13
2023-05-12T22:47:56.868Z,4.57
2023-05-12T22:50:23.989Z,3.57
2023-05-12T22:52:52.961Z,4.13
2023-05-12T22:55:19.626Z,3.72
2023-05-12T22:57:46.576Z,4.13
2023-05-12T23:00:13.999Z,3.67
2023-05-12T23:02:40.655Z,4.43
2023-05-12T23:05:07.543Z,4.45
2023-05-12T23:07:34.079Z,3.88
2023-05-12T23:10:00.660Z,4.10
2023-05-12T23:12:27.253Z,4.05
2023-05-12T23:14:53.880Z,4.30
2023-05-12T23:17:20.985Z,3.80
2023-05-12T23:19:47.822Z,4.78
2023-05-12T23:22:14.364Z,4.05
2023-05-12T23:24:41.030Z,4.57
2023-05-12T23:27:07.597Z,4.33
2023-05-12T23:29:34.647Z,4.63
2023-05-12T23:32:01.392Z,3.90
2023-05-12T23:34:28.490Z,4.60
2023-05-12T23:36:55.091Z,5.30
2023-05-12T23:39:21.703Z,4.13
2023-05-12T23:41:48.363Z,5.25
2023-05-12T23:44:15.144Z,4.63
2023-05-12T23:46:41.886Z,3.80
2023-05-12T23:49:08.974Z,4.45
2023-05-12T23:51:35.876Z,4.03
2023-05-12T23:54:02.428Z,5.20
2023-05-12T23:56:29.000Z,4.55
2023-05-12T23:58:55.545Z,4.03
